Time;durP1;ratioP1;P1;durP2;ratioP2;P2;SDS_P1;SDS_P2;PMS_P1;PMS_P2;Temp;Humidity;BMP_temperature;BMP_pressure;BME280_temperature;BME280_humidity;BME280_pressure;Samples;Min_cycle;Max_cycle;Signal;HPM_P1;HPM_P2
2023/02/15 00:02:47;;;;;;;90.97;32.65;;;;;;;0.74;100.00;101823.66;20952995;28;20416;-69
2023/02/15 00:12:48;;;;;;;87.30;32.72;;;;;;;0.88;100.00;101831.19;20954751;28;20045;-69
2023/02/15 00:22:49;;;;;;;81.35;29.30;;;;;;;0.91;100.00;101824.47;20954819;28;20559;-69
2023/02/15 00:32:51;;;;;;;93.38;30.80;;;;;;;0.92;100.00;101825.34;20954210;28;20459;-70
2023/02/15 00:42:52;;;;;;;93.40;33.05;;;;;;;0.97;100.00;101823.88;20946048;28;20052;-69
2023/02/15 00:52:53;;;;;;;118.53;32.20;;;;;;;1.02;100.00;101817.22;20951853;28;20114;-70
2023/02/15 01:02:54;;;;;;;79.65;29.00;;;;;;;0.97;100.00;101821.28;20950429;28;20048;-70
2023/02/15 01:12:55;;;;;;;109.43;30.38;;;;;;;0.92;100.00;101820.19;20951650;28;20636;-70
2023/02/15 01:22:57;;;;;;;79.90;29.02;;;;;;;0.92;100.00;101815.91;20949122;28;20057;-71
2023/02/15 01:32:58;;;;;;;82.50;29.90;;;;;;;1.03;100.00;101811.25;20950078;28;20102;-70
2023/02/15 01:42:59;;;;;;;77.47;28.50;;;;;;;1.07;100.00;101800.25;20947753;28;20048;-70
2023/02/15 01:53:00;;;;;;;86.47;29.80;;;;;;;1.11;100.00;101791.84;20947316;28;20052;-71
2023/02/15 02:03:02;;;;;;;75.95;29.52;;;;;;;1.14;100.00;101786.81;20947464;28;20490;-71
2023/02/15 02:13:03;;;;;;;69.18;26.80;;;;;;;1.18;100.00;101780.09;20944443;28;20053;-71
2023/02/15 02:23:04;;;;;;;80.03;27.85;;;;;;;1.01;100.00;101774.19;20946419;28;20057;-71
2023/02/15 02:33:05;;;;;;;74.10;28.75;;;;;;;1.10;100.00;101753.06;20925572;28;20445;-70
2023/02/15 02:43:09;;;;;;;65.47;27.33;;;;;;;1.08;100.00;101752.13;20943512;28;20053;-70
2023/02/15 02:53:11;;;;;;;65.85;26.00;;;;;;;1.09;100.00;101754.75;20944398;28;20317;-70
2023/02/15 03:03:14;;;;;;;62.75;25.15;;;;;;;0.98;100.00;101733.66;20944540;28;20056;-69
2023/02/15 03:13:15;;;;;;;65.63;24.77;;;;;;;1.03;100.00;101733.88;20940541;28;20057;-71
2023/02/15 03:23:17;;;;;;;57.85;24.52;;;;;;;1.08;100.00;101749.53;20941267;28;20061;-71
2023/02/15 03:33:18;;;;;;;67.82;26.85;;;;;;;1.07;100.00;101737.47;20940876;28;20063;-71
2023/02/15 03:43:19;;;;;;;68.88;25.67;;;;;;;0.91;100.00;101738.47;20939019;28;20060;-70
2023/02/15 03:53:20;;;;;;;56.35;24.80;;;;;;;0.93;100.00;101739.44;20941442;28;20052;-70
2023/02/15 04:03:22;;;;;;;61.95;24.30;;;;;;;0.97;100.00;101744.81;20938562;28;20056;-70
2023/02/15 04:13:23;;;;;;;57.97;24.17;;;;;;;0.98;100.00;101733.66;20938703;28;20049;-70
2023/02/15 04:33:44;;;;;;;56.53;22.75;;;;;;;0.84;100.00;101733.88;20939616;28;20066;-69
2023/02/15 04:43:45;;;;;;;52.72;22.13;;;;;;;0.94;100.00;101730.88;20949373;28;20052;-70
2023/02/15 04:53:47;;;;;;;56.58;23.60;;;;;;;0.83;100.00;101734.69;20951219;28;20558;-70
2023/02/15 05:03:48;;;;;;;53.08;21.45;;;;;;;0.70;100.00;101730.66;20952772;28;20507;-70
2023/02/15 05:13:49;;;;;;;57.13;23.17;;;;;;;0.75;100.00;101724.00;20950965;28;20059;-70
2023/02/15 05:23:50;;;;;;;56.58;23.98;;;;;;;0.86;100.00;101717.63;20950586;28;20057;-70
2023/02/15 05:33:52;;;;;;;56.53;23.83;;;;;;;0.96;100.00;101717.25;20950679;28;20993;-71
2023/02/15 05:43:53;;;;;;;55.35;23.42;;;;;;;0.92;100.00;101720.50;20945724;28;20049;-70
2023/02/15 05:53:54;;;;;;;55.28;22.95;;;;;;;0.80;100.00;101726.78;20949645;28;20060;-71
2023/02/15 06:03:55;;;;;;;55.70;22.60;;;;;;;0.82;100.00;101728.66;20945244;28;20053;-70
2023/02/15 06:13:57;;;;;;;63.92;23.55;;;;;;;0.88;100.00;101740.94;20945629;28;20060;-70
2023/02/15 06:23:58;;;;;;;69.45;25.75;;;;;;;0.96;100.00;101755.06;20945949;28;20060;-71
2023/02/15 06:34:02;;;;;;;57.42;22.92;;;;;;;0.91;100.00;101752.28;20941884;28;20056;-70
2023/02/15 06:44:03;;;;;;;;;;;;;;;0.98;100.00;101761.16;20936578;28;20469;-70
2023/02/15 06:54:05;;;;;;;73.20;25.08;;;;;;;0.92;100.00;101769.50;20940754;28;19974;-69
2023/02/15 07:04:06;;;;;;;52.83;21.42;;;;;;;0.88;100.00;101772.75;20939820;28;20495;-69
2023/02/15 07:14:07;;;;;;;53.55;22.15;;;;;;;0.73;100.00;101777.22;20944076;28;20392;-69
2023/02/15 07:24:09;;;;;;;61.10;24.50;;;;;;;0.92;100.00;101777.25;20948034;28;20044;-68
2023/02/15 07:34:10;;;;;;;58.30;23.55;;;;;;;0.81;100.00;101762.06;20944859;28;20068;-69
2023/02/15 07:44:12;;;;;;;62.13;23.42;;;;;;;0.93;100.00;101762.66;20944543;28;20429;-69
2023/02/15 07:54:13;;;;;;;58.05;22.30;;;;;;;1.05;100.00;101755.44;20941359;28;20063;-69
2023/02/15 08:04:15;;;;;;;51.97;22.30;;;;;;;0.92;100.00;101763.47;20941483;28;20683;-69
2023/02/15 08:14:16;;;;;;;58.63;23.10;;;;;;;1.11;100.00;101755.72;20949853;28;20144;-69
2023/02/15 08:24:17;;;;;;;61.83;22.05;;;;;;;1.18;100.00;101744.84;20956833;28;20098;-69
2023/02/15 08:34:19;;;;;;;59.95;23.60;;;;;;;1.22;100.00;101759.66;20955350;28;20053;-70
2023/02/15 08:44:20;;;;;;;51.30;21.35;;;;;;;1.30;100.00;101746.22;20957464;28;20053;-69
2023/02/15 08:54:21;;;;;;;45.63;19.08;;;;;;;1.26;100.00;101740.91;20950727;28;20048;-69
2023/02/15 09:04:23;;;;;;;46.67;18.45;;;;;;;1.58;100.00;101727.63;20949878;28;20053;-70
2023/02/15 09:14:25;;;;;;;41.88;18.98;;;;;;;1.67;100.00;101728.88;20951934;28;20064;-70
2023/02/15 09:24:27;;;;;;;43.33;19.08;;;;;;;1.46;100.00;101733.16;20954917;28;20057;-70
2023/02/15 09:34:28;;;;;;;52.65;21.15;;;;;;;1.60;100.00;101720.84;20950922;28;20056;-70
2023/02/15 09:44:29;;;;;;;50.05;21.00;;;;;;;1.68;100.00;101722.91;20948608;28;20110;-70
2023/02/15 09:54:30;;;;;;;63.75;24.08;;;;;;;1.64;100.00;101727.88;20948532;28;20578;-68
2023/02/15 10:04:32;;;;;;;53.63;21.60;;;;;;;1.78;100.00;101737.97;20939635;28;20114;-69
2023/02/15 10:14:40;;;;;;;53.33;21.55;;;;;;;1.81;100.00;101732.03;20947532;28;20056;-69
2023/02/15 10:24:41;;;;;;;56.17;21.55;;;;;;;2.16;100.00;101711.94;20945897;28;20244;-68
2023/02/15 10:34:49;;;;;;;51.35;20.48;;;;;;;2.28;100.00;101705.53;20941431;28;20056;-69
2023/02/15 10:44:51;;;;;;;56.42;21.00;;;;;;;2.29;100.00;101708.97;20945142;28;20504;-69
2023/02/15 10:54:52;;;;;;;63.53;24.45;;;;;;;2.11;100.00;101709.16;20945366;28;20044;-69
2023/02/15 11:04:53;;;;;;;58.97;22.65;;;;;;;2.53;100.00;101701.28;20941483;28;20048;-69
2023/02/15 11:14:55;;;;;;;56.80;23.15;;;;;;;2.81;100.00;101688.56;20941770;28;20068;-67
2023/02/15 11:24:57;;;;;;;62.97;25.63;;;;;;;2.93;100.00;101679.50;20940399;28;20123;-67
2023/02/15 11:34:58;;;;;;;59.13;24.58;;;;;;;2.96;100.00;101671.81;20941021;28;20409;-67
2023/02/15 11:45:00;;;;;;;59.83;24.38;;;;;;;3.21;100.00;101647.69;20897418;28;20075;-67
2023/02/15 11:55:01;;;;;;;62.67;24.38;;;;;;;3.34;100.00;101636.91;20943776;28;20132;-68
2023/02/15 12:05:03;;;;;;;63.05;27.17;;;;;;;3.42;100.00;101616.47;20955203;28;20060;-68
2023/02/15 12:15:05;;;;;;;60.25;25.55;;;;;;;3.37;100.00;101607.69;20956648;28;20048;-67
2023/02/15 12:25:06;;;;;;;65.57;26.73;;;;;;;3.27;100.00;101603.91;20954106;28;20061;-67
2023/02/15 12:35:07;;;;;;;69.15;27.33;;;;;;;3.37;100.00;101587.84;20955967;28;20060;-68
2023/02/15 12:45:09;;;;;;;64.45;27.58;;;;;;;3.57;100.00;101585.88;20945048;28;20064;-68
2023/02/15 12:55:10;;;;;;;59.25;26.13;;;;;;;3.94;100.00;101580.16;20954305;28;20143;-68
2023/02/15 13:05:15;;;;;;;60.88;26.35;;;;;;;4.18;100.00;101574.81;20957618;28;20524;-69
2023/02/15 13:15:17;;;;;;;61.47;27.30;;;;;;;4.23;100.00;101557.66;20950683;28;20056;-69
2023/02/15 13:25:18;;;;;;;62.20;26.35;;;;;;;4.45;100.00;101543.56;20950295;28;20093;-69
2023/02/15 13:35:19;;;;;;;59.20;27.52;;;;;;;4.30;100.00;101531.06;20948291;28;20052;-69
2023/02/15 13:45:22;;;;;;;63.55;28.23;;;;;;;3.82;100.00;101528.81;20951318;28;20048;-69
2023/02/15 13:55:23;;;;;;;64.47;29.08;;;;;;;3.63;100.00;101518.75;20946380;28;20064;-69
2023/02/15 14:05:25;;;;;;;72.90;29.83;;;;;;;3.44;100.00;101503.47;20948820;28;20455;-68
2023/02/15 14:15:27;;;;;;;71.22;31.38;;;;;;;3.33;100.00;101506.63;20944243;28;20413;-69
2023/02/15 14:25:28;;;;;;;72.05;30.85;;;;;;;3.60;100.00;101513.50;20946503;28;20489;-69
2023/02/15 14:35:30;;;;;;;76.45;29.92;;;;;;;3.85;100.00;101504.72;20944845;28;20060;-69
2023/02/15 14:45:31;;;;;;;71.40;29.92;;;;;;;3.84;100.00;101498.69;20942954;28;20130;-69
2023/02/15 14:55:35;;;;;;;68.90;28.13;;;;;;;3.91;100.00;101485.88;20944381;28;20056;-69
2023/02/15 15:05:36;;;;;;;70.20;30.27;;;;;;;3.91;100.00;101488.47;20940179;28;20049;-68
2023/02/15 15:15:37;;;;;;;68.47;28.88;;;;;;;3.69;100.00;101486.97;20941454;28;20060;-68
2023/02/15 15:25:40;;;;;;;65.75;29.02;;;;;;;3.74;100.00;101475.94;20941669;28;20072;-69
2023/02/15 15:35:42;;;;;;;62.03;27.27;;;;;;;3.72;100.00;101477.56;20937855;28;20072;-68
2023/02/15 15:45:43;;;;;;;63.10;28.50;;;;;;;3.55;100.00;101468.47;20942640;28;20060;-70
2023/02/15 15:55:44;;;;;;;61.63;26.67;;;;;;;3.42;100.00;101468.91;20935652;28;20552;-69
2023/02/15 16:05:45;;;;;;;69.85;27.98;;;;;;;3.26;100.00;101481.38;20932670;28;20126;-70
2023/02/15 16:15:51;;;;;;;67.95;27.90;;;;;;;3.09;100.00;101486.00;20934056;28;20057;-69
2023/02/15 16:25:53;;;;;;;62.55;27.45;;;;;;;2.85;100.00;101482.63;20932270;28;20103;-69
2023/02/15 16:35:54;;;;;;;60.83;27.10;;;;;;;2.65;100.00;101479.38;20932849;28;20547;-69
2023/02/15 16:45:55;;;;;;;62.17;27.52;;;;;;;2.42;100.00;101490.66;20939880;28;20064;-68
2023/02/15 16:55:57;;;;;;;70.30;29.92;;;;;;;2.22;100.00;101493.41;20947179;28;20105;-69
2023/02/15 17:06:00;;;;;;;65.85;29.00;;;;;;;2.02;100.00;101499.56;20933874;28;20544;-70
2023/02/15 17:16:01;;;;;;;68.63;29.13;;;;;;;1.82;100.00;101503.09;20936839;28;20841;-70
2023/02/15 17:26:03;;;;;;;68.30;30.88;;;;;;;1.65;100.00;101495.59;20939097;28;20061;-70
2023/02/15 17:36:05;;;;;;;66.68;28.75;;;;;;;1.52;100.00;101495.94;20933202;28;20056;-70
2023/02/15 17:46:06;;;;;;;64.88;28.45;;;;;;;1.40;100.00;101500.66;20935375;28;20061;-68
2023/02/15 17:56:11;;;;;;;77.22;31.63;;;;;;;1.22;100.00;101509.41;20934944;28;20079;-71
2023/02/15 18:16:35;;;;;;;75.60;34.58;;;;;;;0.79;100.00;101499.06;20931984;28;20497;-71
2023/02/15 18:26:38;;;;;;;70.70;30.95;;;;;;;0.70;100.00;101498.69;20932788;28;20053;-69
2023/02/15 18:36:39;;;;;;;82.97;36.60;;;;;;;0.56;100.00;101494.63;20934332;28;20065;-69
2023/02/15 18:46:41;;;;;;;71.43;31.88;;;;;;;0.44;100.00;101500.16;20936306;28;20048;-70
2023/02/15 18:56:42;;;;;;;70.43;28.15;;;;;;;0.30;100.00;101506.41;20923770;28;20056;-70
2023/02/15 19:06:44;;;;;;;66.72;28.23;;;;;;;0.06;100.00;101501.94;20928427;28;20076;-71
2023/02/15 19:16:48;;;;;;;56.50;25.63;;;;;;;-0.15;100.00;101495.81;20928082;28;20132;-70
2023/02/15 19:26:50;;;;;;;113.10;30.23;;;;;;;-0.17;100.00;101488.03;20926727;28;20577;-70
2023/02/15 19:36:51;;;;;;;81.25;29.35;;;;;;;-0.02;100.00;101473.28;20931155;28;20350;-70
2023/02/15 19:46:53;;;;;;;76.20;30.05;;;;;;;0.17;100.00;101469.81;20927803;28;20059;-70
2023/02/15 19:56:54;;;;;;;74.53;29.77;;;;;;;0.14;100.00;101490.28;20930027;28;20057;-70
2023/02/15 20:06:55;;;;;;;111.45;36.58;;;;;;;0.49;100.00;101470.31;20934081;28;20056;-70
2023/02/15 20:16:57;;;;;;;85.60;33.55;;;;;;;0.36;100.00;101481.78;20944894;28;20049;-70
2023/02/15 20:26:58;;;;;;;87.22;35.63;;;;;;;0.57;100.00;101502.44;20940386;28;20505;-70
2023/02/15 20:36:59;;;;;;;81.45;32.28;;;;;;;0.40;100.00;101506.00;20938721;28;20110;-71
2023/02/15 20:47:01;;;;;;;125.85;37.25;;;;;;;0.51;100.00;101509.91;20960470;22;20048;-73
2023/02/15 20:57:04;;;;;;;69.57;30.05;;;;;;;0.33;100.00;101498.81;20944304;28;20048;-73
2023/02/15 21:07:06;;;;;;;58.17;26.50;;;;;;;0.12;100.00;101502.22;20943916;28;20102;-71
2023/02/15 21:17:07;;;;;;;53.10;24.08;;;;;;;-0.07;100.00;101520.22;20941210;28;20459;-71
2023/02/15 21:27:08;;;;;;;73.20;27.10;;;;;;;-0.14;100.00;101524.22;20943732;28;20057;-71
2023/02/15 21:37:10;;;;;;;65.75;26.15;;;;;;;-0.15;100.00;101517.28;20941867;28;20049;-73
2023/02/15 21:57:31;;;;;;;63.53;26.58;;;;;;;-0.12;100.00;101511.41;20940632;28;20107;-73
2023/02/15 22:07:32;;;;;;;64.75;25.05;;;;;;;-0.17;100.00;101512.91;20944603;28;20052;-73
2023/02/15 22:17:35;;;;;;;65.55;25.63;;;;;;;-0.14;100.00;101519.06;20944558;28;20056;-72
2023/02/15 22:27:36;;;;;;;76.82;27.45;;;;;;;-0.06;100.00;101517.72;20937846;28;20119;-73
2023/02/15 22:37:37;;;;;;;66.82;26.80;;;;;;;0.05;100.00;101515.66;20938435;28;20471;-72
2023/02/15 22:47:38;;;;;;;63.38;26.75;;;;;;;-0.02;100.00;101519.63;20897210;28;20064;-71
2023/02/15 22:57:40;;;;;;;69.18;27.48;;;;;;;-0.03;100.00;101506.69;20919714;28;20672;-72
2023/02/15 23:07:41;;;;;;;84.38;27.58;;;;;;;-0.23;100.00;101517.78;20942403;28;20048;-72
2023/02/15 23:17:42;;;;;;;55.75;25.45;;;;;;;-0.06;100.00;101516.84;20944495;28;20059;-73
2023/02/15 23:27:55;;;;;;;58.67;27.33;;;;;;;-0.01;100.00;101505.03;20941333;28;20551;-73
2023/02/15 23:37:56;;;;;;;56.67;25.02;;;;;;;-0.03;100.00;101502.41;20941369;28;20053;-73
2023/02/15 23:58:18;;;;;;;58.40;24.60;;;;;;;-0.07;100.00;101487.63;20957108;28;20547;-73
